Terminal Aerodrome Forecast
Issued by NWS Houston/Galveston, TX

Home | Current Version | Previous Version | Text Only | Print | Product List | Glossary On
Versions: 1 2 3 4 5 6 7 8 9 10 11 12 13 14 15 16 17 18 19 20 21 22 23 24 25 26 27 28
000
FTUS44 KHGX 172340
TAFGLS
TAF
KGLS 172340Z 1800/1824 13010KT P6SM FEW060
      TEMPO 1800/1801 4SM BR SCT010 OVC250
     FM180100 12008KT 2SM BR BKN006
     FM180300 12008KT 1/2SM FG VCSH OVC003
     FM180900 15008KT 2SM SHRA BR OVC005
     FM181400 16005KT 4SM SHRA BR OVC007
      TEMPO 1815/1818 5SM BR BKN012 OVC030=

USA.gov is the U.S. government's official web portal to all federal, state and local government web resources and services.